Time;durP1;ratioP1;P1;durP2;ratioP2;P2;SDS_P1;SDS_P2;PMS_P1;PMS_P2;Temp;Humidity;BMP_temperature;BMP_pressure;BME280_temperature;BME280_humidity;BME280_pressure;Samples;Min_cycle;Max_cycle;Signal;HPM_P1;HPM_P2
2022/03/22 00:01:10;;;;;;;9.73;7.33;;;;;;;6.89;53.72;97849.63;5058910;28;20217;-51
2022/03/22 00:03:37;;;;;;;11.30;7.93;;;;;;;6.85;54.17;97855.16;5058263;28;20269;-50
2022/03/22 00:06:04;;;;;;;11.63;7.90;;;;;;;6.84;54.06;97856.91;5044661;28;20227;-51
2022/03/22 00:08:32;;;;;;;10.93;8.07;;;;;;;6.73;54.85;97856.69;5057774;28;20214;-51
2022/03/22 00:10:59;;;;;;;11.93;7.60;;;;;;;6.70;54.63;97858.66;5056878;28;20195;-49
2022/03/22 00:13:29;;;;;;;9.47;7.53;;;;;;;6.72;54.39;97856.81;5056876;28;20218;-51
2022/03/22 00:15:56;;;;;;;8.90;7.20;;;;;;;6.71;54.19;97858.59;5057161;28;20562;-50
2022/03/22 00:18:23;;;;;;;14.10;8.00;;;;;;;6.59;54.34;97864.53;5062211;28;20223;-51
2022/03/22 00:20:50;;;;;;;13.97;7.77;;;;;;;6.63;54.39;97858.19;5062270;28;20210;-51
2022/03/22 00:23:18;;;;;;;12.20;8.67;;;;;;;6.60;54.41;97854.88;5064521;28;20243;-51
2022/03/22 00:25:47;;;;;;;9.03;7.60;;;;;;;6.58;55.30;97851.50;5050164;28;20290;-51
2022/03/22 00:28:13;;;;;;;11.60;8.20;;;;;;;6.47;55.04;97865.28;5054416;28;20208;-51
2022/03/22 00:30:42;;;;;;;10.73;7.70;;;;;;;6.53;55.10;97859.66;5052288;28;20226;-51
2022/03/22 00:33:10;;;;;;;13.77;8.53;;;;;;;6.39;55.56;97862.22;5056457;28;20222;-52
2022/03/22 00:35:40;;;;;;;10.97;7.90;;;;;;;6.34;55.75;97861.66;5055592;28;20253;-50
2022/03/22 00:38:08;;;;;;;16.07;8.83;;;;;;;6.26;55.84;97858.59;5064759;28;20217;-50
2022/03/22 00:40:35;;;;;;;15.30;8.30;;;;;;;6.16;56.15;97863.53;5079414;28;20182;-51
2022/03/22 00:43:02;;;;;;;11.67;8.57;;;;;;;6.11;56.38;97856.84;5080656;28;20190;-50
2022/03/22 00:45:33;;;;;;;12.20;7.93;;;;;;;6.12;56.00;97858.53;5069719;28;20207;-50
2022/03/22 00:48:03;;;;;;;12.17;8.10;;;;;;;6.08;57.12;97859.63;5058277;28;20214;-50
2022/03/22 00:50:33;;;;;;;10.63;7.90;;;;;;;6.07;57.11;97855.31;5057421;28;20203;-49
2022/03/22 00:53:01;;;;;;;11.90;7.87;;;;;;;6.00;56.72;97855.66;5056450;28;20219;-50
2022/03/22 00:55:31;;;;;;;9.70;8.27;;;;;;;5.99;56.77;97851.34;5056557;28;20237;-52
2022/03/22 00:57:59;;;;;;;14.43;9.63;;;;;;;6.00;56.88;97855.66;5056821;28;20286;-48
2022/03/22 01:00:26;;;;;;;12.73;8.87;;;;;;;5.92;57.15;97852.59;5055717;28;20207;-51
2022/03/22 01:02:56;;;;;;;16.57;10.73;;;;;;;5.88;57.11;97852.88;5055288;28;20207;-50
2022/03/22 01:05:28;;;;;;;14.67;10.03;;;;;;;5.86;57.02;97858.22;5056224;28;20252;-49
2022/03/22 01:07:56;;;;;;;16.77;10.53;;;;;;;5.88;57.52;97853.69;5051529;28;20207;-51
2022/03/22 01:10:25;;;;;;;15.20;9.93;;;;;;;5.86;57.42;97854.72;5055280;28;20210;-49
2022/03/22 01:12:52;;;;;;;12.03;9.37;;;;;;;5.84;57.20;97862.69;5055810;28;20214;-51
2022/03/22 01:15:21;;;;;;;13.17;9.07;;;;;;;5.79;57.50;97854.19;5071179;28;20223;-49
2022/03/22 01:17:50;;;;;;;13.20;8.23;;;;;;;5.75;57.67;97855.28;5056197;28;20828;-49
2022/03/22 01:20:20;;;;;;;11.23;8.57;;;;;;;5.76;57.48;97846.50;5056385;28;20211;-49
2022/03/22 01:22:50;;;;;;;14.03;9.23;;;;;;;5.69;57.70;97850.38;5042630;28;20272;-50
2022/03/22 01:25:20;;;;;;;13.97;8.67;;;;;;;5.64;58.04;97849.78;5055833;28;20199;-48
2022/03/22 01:27:51;;;;;;;16.27;11.87;;;;;;;5.60;58.29;97855.28;5042526;28;20230;-51
2022/03/22 01:30:20;;;;;;;30.37;13.00;;;;;;;5.61;57.87;97851.72;5056035;28;20264;-48
2022/03/22 01:32:46;;;;;;;17.77;11.07;;;;;;;5.59;58.35;97849.19;5055512;28;20654;-50
2022/03/22 01:35:13;;;;;;;14.10;9.60;;;;;;;5.58;58.03;97847.50;5055891;28;20230;-49
2022/03/22 01:37:41;;;;;;;11.53;9.63;;;;;;;5.55;58.06;97842.41;5055508;28;20207;-50
2022/03/22 01:40:10;;;;;;;13.53;9.27;;;;;;;5.49;58.23;97843.56;5055375;28;20651;-50
2022/03/22 01:42:38;;;;;;;13.37;9.30;;;;;;;5.45;58.37;97851.72;5054864;28;20234;-51
2022/03/22 01:45:07;;;;;;;11.57;9.17;;;;;;;5.49;58.59;97848.00;5054902;28;20606;-50
2022/03/22 01:47:41;;;;;;;11.80;8.53;;;;;;;5.42;58.57;97844.84;5043910;28;20568;-50
2022/03/22 01:50:10;;;;;;;11.27;8.80;;;;;;;5.44;58.82;97839.50;5055355;28;20555;-50
2022/03/22 01:52:40;;;;;;;13.80;9.57;;;;;;;5.39;57.90;97846.78;5054992;28;20282;-51
2022/03/22 01:55:09;;;;;;;10.47;9.37;;;;;;;5.34;58.44;97849.66;5054830;28;20227;-51
2022/03/22 01:57:36;;;;;;;11.70;10.00;;;;;;;5.30;58.55;97840.25;5055233;28;20628;-51
2022/03/22 02:00:05;;;;;;;14.27;10.80;;;;;;;5.20;59.01;97838.22;5054715;28;20203;-51
2022/03/22 02:08:02;;;;;;;15.93;10.30;;;;;;;5.12;58.66;97835.97;5055172;28;20211;-51
2022/03/22 02:10:31;;;;;;;12.70;10.10;;;;;;;5.11;59.03;97838.66;5055570;28;20234;-50
2022/03/22 02:12:58;;;;;;;10.53;8.80;;;;;;;5.15;59.14;97829.72;5055000;28;20199;-50
2022/03/22 02:15:26;;;;;;;12.83;10.27;;;;;;;5.14;59.18;97826.25;5054274;28;20238;-50
2022/03/22 02:17:52;;;;;;;14.07;10.33;;;;;;;5.09;59.47;97830.91;5054982;28;20211;-51
2022/03/22 02:20:21;;;;;;;12.13;9.63;;;;;;;5.14;58.92;97830.63;5053772;28;20206;-51
2022/03/22 02:22:52;;;;;;;12.67;9.77;;;;;;;5.10;58.51;97839.63;5057251;28;20221;-51
2022/03/22 02:25:22;;;;;;;14.23;10.87;;;;;;;5.04;58.71;97838.16;5074381;28;20199;-54
2022/03/22 02:27:52;;;;;;;16.13;10.60;;;;;;;4.97;59.60;97835.00;5054936;28;20529;-51
2022/03/22 02:30:19;;;;;;;17.23;12.20;;;;;;;4.89;59.84;97833.69;5054595;28;20238;-51
2022/03/22 02:32:50;;;;;;;14.13;11.53;;;;;;;4.83;60.03;97837.50;5054728;28;20215;-51
2022/03/22 02:35:19;;;;;;;13.63;10.03;;;;;;;4.84;60.02;97833.94;5054792;28;20608;-50
2022/03/22 02:37:48;;;;;;;13.73;10.50;;;;;;;4.78;60.13;97834.25;5051945;28;20261;-51
2022/03/22 02:40:17;;;;;;;14.10;10.13;;;;;;;4.69;60.79;97839.13;5054196;28;20234;-51
2022/03/22 02:42:50;;;;;;;13.97;11.13;;;;;;;4.72;60.77;97842.44;5055195;28;20264;-52
2022/03/22 02:45:18;;;;;;;11.73;10.30;;;;;;;4.68;60.09;97838.25;5055251;28;20257;-50
2022/03/22 02:47:45;;;;;;;14.20;9.80;;;;;;;4.61;60.78;97841.25;5055708;28;20214;-51
2022/03/22 02:50:18;;;;;;;14.90;10.13;;;;;;;4.61;61.04;97836.88;5054906;28;20203;-51
2022/03/22 02:52:45;;;;;;;12.77;9.67;;;;;;;4.65;60.80;97829.72;5055539;28;20677;-50
2022/03/22 02:55:12;;;;;;;12.97;9.97;;;;;;;4.61;61.42;97834.25;5055327;28;20226;-49
2022/03/22 02:57:39;;;;;;;11.07;9.67;;;;;;;4.58;61.49;97837.03;5058739;28;20203;-52
2022/03/22 03:00:12;;;;;;;13.03;10.10;;;;;;;4.54;61.55;97830.25;5074561;28;20190;-51
2022/03/22 03:02:43;;;;;;;14.93;10.10;;;;;;;4.46;62.14;97835.06;5082138;28;20216;-52
2022/03/22 03:05:10;;;;;;;15.23;9.43;;;;;;;4.49;61.28;97840.97;5081852;28;20244;-51
2022/03/22 03:07:38;;;;;;;17.93;10.70;;;;;;;4.46;61.45;97842.91;5079267;28;20265;-52
2022/03/22 03:10:06;;;;;;;13.93;10.53;;;;;;;4.43;61.86;97843.88;5066016;28;20259;-51
2022/03/22 03:12:32;;;;;;;14.67;9.70;;;;;;;4.39;61.73;97849.38;5065454;28;20210;-52
2022/03/22 03:15:02;;;;;;;13.70;9.63;;;;;;;4.40;61.89;97840.56;5063330;28;20240;-52
2022/03/22 03:17:30;;;;;;;18.80;11.17;;;;;;;4.35;62.28;97848.69;5067877;28;20218;-51
2022/03/22 03:19:57;;;;;;;13.73;10.40;;;;;;;4.22;62.74;97846.72;5051029;28;20212;-50
2022/03/22 03:22:24;;;;;;;15.17;9.97;;;;;;;4.26;62.59;97851.72;5065183;28;20211;-50
2022/03/22 03:24:54;;;;;;;16.00;10.17;;;;;;;4.25;62.24;97846.59;5060720;28;20292;-50
2022/03/22 03:27:22;;;;;;;13.17;9.93;;;;;;;4.24;62.03;97850.13;5061227;28;20589;-50
2022/03/22 03:29:48;;;;;;;13.53;9.53;;;;;;;4.20;62.20;97851.19;5059132;28;20203;-50
2022/03/22 03:32:15;;;;;;;12.47;9.83;;;;;;;4.16;62.65;97850.50;5058015;28;20207;-51
2022/03/22 03:34:45;;;;;;;11.50;9.90;;;;;;;4.16;62.63;97852.25;5048980;28;20206;-50
2022/03/22 03:37:12;;;;;;;12.73;9.97;;;;;;;4.18;62.74;97853.88;5053882;28;20211;-52
2022/03/22 03:39:40;;;;;;;13.53;9.87;;;;;;;4.07;62.74;97861.41;5058427;28;20217;-51
2022/03/22 03:42:07;;;;;;;15.00;10.63;;;;;;;4.09;63.18;97864.78;5058073;28;20582;-50
2022/03/22 03:47:22;;;;;;;15.30;10.63;;;;;;;3.88;64.47;97877.13;5056743;28;20210;-49
2022/03/22 03:49:55;;;;;;;14.53;9.80;;;;;;;3.92;64.20;97872.59;5058020;28;20289;-51
2022/03/22 03:52:23;;;;;;;15.03;9.80;;;;;;;3.99;63.51;97885.34;5058098;28;20214;-51
2022/03/22 03:54:52;;;;;;;12.23;8.90;;;;;;;3.89;64.72;97883.22;5057612;28;20231;-50
2022/03/22 03:57:19;;;;;;;15.63;9.67;;;;;;;3.88;64.27;97887.59;5057460;28;20202;-49
2022/03/22 03:59:46;;;;;;;14.03;10.07;;;;;;;3.87;64.46;97891.13;5057624;28;20278;-50
2022/03/22 04:02:13;;;;;;;15.37;10.23;;;;;;;3.87;64.35;97895.50;5049255;28;20222;-50
2022/03/22 04:04:41;;;;;;;11.80;9.93;;;;;;;3.87;64.59;97900.75;5052609;28;20241;-49
2022/03/22 04:07:11;;;;;;;11.37;9.70;;;;;;;3.83;64.56;97899.19;5056317;28;20210;-50
2022/03/22 04:09:40;;;;;;;14.37;9.57;;;;;;;3.78;65.13;97902.03;5056513;28;20210;-51
2022/03/22 04:12:07;;;;;;;12.07;10.03;;;;;;;3.75;64.95;97894.34;5057679;28;20218;-49
2022/03/22 04:14:35;;;;;;;13.77;10.00;;;;;;;3.71;65.08;97905.84;5057312;28;20210;-51
2022/03/22 04:17:02;;;;;;;14.80;10.07;;;;;;;3.75;65.15;97901.31;5057190;28;20226;-51
2022/03/22 04:19:29;;;;;;;12.97;9.73;;;;;;;3.65;65.98;97902.69;5057268;28;20203;-51
2022/03/22 04:21:55;;;;;;;12.93;9.40;;;;;;;3.62;66.37;97903.63;5057443;28;20293;-50
2022/03/22 04:24:24;;;;;;;12.30;9.77;;;;;;;3.62;65.97;97905.41;5043095;28;20243;-51
2022/03/22 04:26:53;;;;;;;9.50;8.60;;;;;;;3.63;66.32;97912.34;5056576;28;20195;-50
2022/03/22 04:34:49;;;;;;;16.13;10.23;;;;;;;3.55;66.58;97914.44;5057071;28;20218;-49
2022/03/22 04:37:17;;;;;;;11.43;9.33;;;;;;;3.54;66.46;97915.38;5056991;28;20631;-50
2022/03/22 04:39:47;;;;;;;15.13;10.20;;;;;;;3.48;66.23;97919.97;5057439;28;20234;-50
2022/03/22 04:42:15;;;;;;;11.33;8.93;;;;;;;3.48;65.99;97919.09;5057213;28;20230;-51
2022/03/22 04:44:41;;;;;;;12.63;9.70;;;;;;;3.43;67.08;97928.94;5057395;28;20538;-50
2022/03/22 04:47:08;;;;;;;11.63;9.90;;;;;;;3.43;66.72;97921.09;5054670;28;20219;-49
2022/03/22 04:49:35;;;;;;;12.43;10.10;;;;;;;3.46;66.68;97919.19;5061084;28;20209;-51
2022/03/22 04:57:33;;;;;;;11.90;8.93;;;;;;;3.31;66.95;97924.25;5050828;28;20225;-49
2022/03/22 05:00:00;;;;;;;12.37;9.33;;;;;;;3.27;67.20;97928.75;5067818;28;20269;-51
2022/03/22 05:02:29;;;;;;;10.97;9.80;;;;;;;3.33;66.91;97918.00;5055236;28;20215;-51
2022/03/22 05:04:57;;;;;;;12.90;9.77;;;;;;;3.35;66.87;97924.03;5050537;28;20834;-51
2022/03/22 05:07:26;;;;;;;12.70;10.13;;;;;;;3.33;67.56;97925.03;5065685;28;20206;-52
2022/03/22 05:09:54;;;;;;;13.97;10.70;;;;;;;3.36;66.63;97925.75;5064993;28;20241;-51
2022/03/22 05:12:21;;;;;;;16.00;9.80;;;;;;;3.38;66.98;97920.44;5069463;28;20210;-51
2022/03/22 05:14:50;;;;;;;15.43;10.17;;;;;;;3.41;66.83;97925.53;5068678;28;20205;-49
2022/03/22 05:17:21;;;;;;;12.77;9.67;;;;;;;3.35;66.86;97917.97;5070806;28;20268;-51
2022/03/22 05:19:48;;;;;;;12.07;9.43;;;;;;;3.42;66.96;97919.38;5069330;28;20206;-50
2022/03/22 05:22:15;;;;;;;11.47;9.83;;;;;;;3.35;67.00;97923.19;5074106;28;20203;-51
2022/03/22 05:24:44;;;;;;;12.20;10.37;;;;;;;3.27;67.54;97927.91;5073571;28;20211;-50
2022/03/22 05:27:12;;;;;;;13.17;10.30;;;;;;;3.31;67.78;97932.94;5078944;28;20219;-51
2022/03/22 05:29:43;;;;;;;14.80;9.63;;;;;;;3.23;68.14;97934.16;5079830;28;20187;-51
2022/03/22 05:32:12;;;;;;;13.40;9.80;;;;;;;3.32;67.95;97931.16;5063371;28;20219;-50
2022/03/22 05:34:39;;;;;;;13.33;9.47;;;;;;;3.38;68.40;97928.28;5055969;28;20199;-49
2022/03/22 05:37:07;;;;;;;15.17;10.07;;;;;;;3.29;68.59;97928.69;5056393;28;20242;-49
2022/03/22 05:39:35;;;;;;;14.30;9.97;;;;;;;3.29;68.98;97924.31;5055269;28;20634;-50
2022/03/22 05:42:04;;;;;;;10.20;9.20;;;;;;;3.27;68.18;97926.13;5051767;28;20210;-51
2022/03/22 05:44:35;;;;;;;15.20;9.50;;;;;;;3.37;67.84;97921.34;5055635;28;20283;-51
2022/03/22 05:47:02;;;;;;;12.23;9.73;;;;;;;3.18;69.34;97920.47;5054202;28;20218;-51
2022/03/22 05:49:29;;;;;;;14.93;9.13;;;;;;;3.19;69.69;97927.41;5055415;28;20208;-51
2022/03/22 05:51:57;;;;;;;11.23;9.93;;;;;;;3.23;69.22;97934.16;5055697;28;20225;-51
2022/03/22 05:54:24;;;;;;;11.73;8.90;;;;;;;3.28;69.12;97937.44;5055572;28;20206;-51
2022/03/22 05:56:51;;;;;;;14.73;10.30;;;;;;;3.31;69.52;97945.16;5042039;28;20237;-51
2022/03/22 05:59:17;;;;;;;12.00;9.17;;;;;;;3.33;69.70;97956.41;5055746;28;20209;-52
2022/03/22 06:01:45;;;;;;;13.50;9.87;;;;;;;3.39;69.70;97951.75;5054335;28;20225;-52
2022/03/22 06:04:13;;;;;;;13.07;9.70;;;;;;;3.59;69.18;97965.69;5055613;28;20304;-52
2022/03/22 06:06:46;;;;;;;16.23;10.07;;;;;;;3.93;69.08;97969.34;5052744;28;20548;-52
2022/03/22 06:09:13;;;;;;;13.73;9.60;;;;;;;4.59;66.41;97958.41;5054798;28;20213;-50
2022/03/22 06:11:39;;;;;;;14.23;10.13;;;;;;;4.89;64.97;97954.25;5054439;28;20230;-52
2022/03/22 06:14:07;;;;;;;11.33;10.10;;;;;;;5.04;65.37;97950.88;5054993;28;20221;-52
2022/03/22 06:16:36;;;;;;;12.67;10.50;;;;;;;5.62;63.40;97954.00;5041505;28;20270;-52
2022/03/22 06:19:06;;;;;;;14.17;10.47;;;;;;;6.20;59.28;97956.16;5055441;28;20203;-51
2022/03/22 06:21:33;;;;;;;13.00;10.53;;;;;;;6.32;59.56;97952.84;5071124;28;20195;-50
2022/03/22 06:24:01;;;;;;;12.27;10.13;;;;;;;6.85;56.76;97955.06;5053414;28;20245;-53
2022/03/22 06:26:27;;;;;;;13.60;10.10;;;;;;;7.33;56.98;97960.06;5055612;28;20551;-51
2022/03/22 06:28:55;;;;;;;12.47;11.20;;;;;;;7.22;57.49;97959.03;5054959;28;20239;-50
2022/03/22 06:31:22;;;;;;;15.43;10.87;;;;;;;7.47;56.51;97959.28;5054818;28;20207;-52
2022/03/22 06:33:49;;;;;;;13.97;10.87;;;;;;;7.90;55.96;97968.06;5054897;28;20207;-52
2022/03/22 06:36:17;;;;;;;16.90;10.90;;;;;;;8.19;53.62;97966.22;5054630;28;20666;-51
2022/03/22 06:38:43;;;;;;;18.87;11.37;;;;;;;8.80;51.12;97957.91;5054021;28;20286;-51
2022/03/22 06:41:10;;;;;;;18.67;10.93;;;;;;;9.57;49.77;97962.41;5054636;28;20214;-51
2022/03/22 06:43:36;;;;;;;18.77;13.07;;;;;;;10.04;48.51;97956.47;5054529;28;20207;-52
2022/03/22 06:46:03;;;;;;;12.03;10.80;;;;;;;10.65;46.39;97963.56;5054918;28;20199;-52
2022/03/22 06:48:29;;;;;;;16.90;10.10;;;;;;;10.82;45.21;97966.69;5054958;28;20199;-52
2022/03/22 06:50:56;;;;;;;11.87;10.63;;;;;;;11.16;44.19;97966.84;5055237;28;20211;-52
2022/03/22 06:53:23;;;;;;;13.03;11.33;;;;;;;11.30;44.57;97964.81;5054912;28;20218;-52
2022/03/22 06:55:52;;;;;;;17.53;11.50;;;;;;;11.87;42.21;97967.53;5054281;28;20237;-53
2022/03/22 06:58:21;;;;;;;14.17;11.20;;;;;;;12.26;41.19;97970.66;5055025;28;20223;-53
2022/03/22 07:00:48;;;;;;;16.77;10.67;;;;;;;12.18;41.43;97959.84;5055351;28;20207;-52
2022/03/22 07:03:15;;;;;;;19.27;10.93;;;;;;;12.87;39.51;97967.44;5054864;28;20521;-51
2022/03/22 07:05:42;;;;;;;16.87;11.57;;;;;;;12.35;41.65;97972.63;5055232;28;20211;-51
2022/03/22 07:08:09;;;;;;;15.53;11.20;;;;;;;12.40;41.04;97975.72;5054488;28;20640;-52
2022/03/22 07:10:40;;;;;;;15.30;11.03;;;;;;;11.96;40.50;97980.09;5054908;28;20221;-50
2022/03/22 07:13:11;;;;;;;15.50;11.67;;;;;;;11.40;41.04;97972.94;5055259;28;20214;-52
2022/03/22 07:15:39;;;;;;;13.10;10.93;;;;;;;10.83;42.25;97973.66;5055481;28;20191;-50
2022/03/22 07:18:07;;;;;;;12.83;10.77;;;;;;;10.20;44.58;97973.00;5054571;28;20211;-53
2022/03/22 07:20:35;;;;;;;15.70;10.70;;;;;;;9.76;45.77;97984.84;5055080;28;20202;-50
2022/03/22 07:23:02;;;;;;;16.73;11.70;;;;;;;9.72;46.95;97986.00;5056052;28;20207;-50
2022/03/22 07:25:28;;;;;;;15.60;11.17;;;;;;;9.46;46.44;97982.47;5055797;28;20196;-52
2022/03/22 07:27:57;;;;;;;13.13;11.37;;;;;;;9.21;47.07;97981.59;5061537;28;20206;-51
2022/03/22 07:30:24;;;;;;;16.77;11.40;;;;;;;8.89;48.94;97981.91;5066215;28;20199;-52
2022/03/22 07:32:51;;;;;;;16.13;11.60;;;;;;;8.95;47.87;97978.88;5049265;28;20207;-51
2022/03/22 07:35:19;;;;;;;17.67;10.53;;;;;;;8.83;47.79;97982.31;5054323;28;20207;-51
2022/03/22 07:37:46;;;;;;;16.23;11.10;;;;;;;8.77;47.83;97981.88;5056318;28;20242;-50
2022/03/22 07:40:14;;;;;;;20.20;11.60;;;;;;;8.83;47.79;97979.66;5059700;28;20210;-52
2022/03/22 07:42:43;;;;;;;16.50;11.77;;;;;;;8.87;47.87;97975.88;5056719;28;20215;-51
2022/03/22 07:45:12;;;;;;;23.27;12.90;;;;;;;8.69;47.60;97977.06;5058005;28;20212;-50
2022/03/22 07:47:41;;;;;;;16.60;11.43;;;;;;;8.57;47.21;97980.53;5065308;28;20259;-52
2022/03/22 07:53:05;;;;;;;22.13;12.40;;;;;;;8.82;48.03;97975.34;5073190;28;20213;-52
2022/03/22 07:55:33;;;;;;;15.37;12.10;;;;;;;8.82;47.14;97985.88;5058513;28;20241;-51
2022/03/22 07:58:00;;;;;;;18.00;11.40;;;;;;;8.93;47.54;97977.25;5068907;28;20230;-51
2022/03/22 08:00:29;;;;;;;13.57;10.70;;;;;;;9.11;47.72;97985.78;5077907;28;20292;-52
2022/03/22 08:02:57;;;;;;;20.07;12.20;;;;;;;9.17;47.24;97990.66;5079941;28;20187;-51
2022/03/22 08:05:26;;;;;;;19.33;12.63;;;;;;;9.10;47.08;97994.66;5079893;28;20214;-51
2022/03/22 08:07:53;;;;;;;16.77;11.60;;;;;;;9.18;48.04;97990.53;5066854;28;20198;-51
2022/03/22 08:10:20;;;;;;;18.60;12.07;;;;;;;9.20;47.61;97995.72;5078345;28;20240;-51
2022/03/22 08:12:48;;;;;;;20.97;12.47;;;;;;;9.19;48.25;97996.69;5078331;28;20207;-52
2022/03/22 08:15:16;;;;;;;17.33;12.20;;;;;;;9.22;47.92;97988.53;5077340;28;20203;-52
2022/03/22 08:17:44;;;;;;;18.13;12.60;;;;;;;9.27;47.41;97992.59;5067895;28;20705;-51
2022/03/22 08:20:12;;;;;;;14.53;11.73;;;;;;;9.25;47.10;97994.47;5065692;28;20635;-51
2022/03/22 08:22:50;;;;;;;16.37;12.23;;;;;;;9.28;46.91;97988.97;5058108;28;20253;-51
2022/03/22 08:25:18;;;;;;;15.13;12.03;;;;;;;9.39;47.16;97981.19;5057182;28;20246;-51
2022/03/22 08:27:46;;;;;;;18.03;12.30;;;;;;;9.48;46.91;97992.94;5061826;28;20259;-51
2022/03/22 08:30:13;;;;;;;17.90;12.00;;;;;;;9.60;46.70;97983.34;5061868;28;20218;-51
2022/03/22 08:32:41;;;;;;;14.00;11.30;;;;;;;9.79;46.37;97981.97;5060894;28;20222;-51
2022/03/22 08:35:10;;;;;;;16.57;11.40;;;;;;;9.85;45.99;97978.91;5079457;28;20190;-52
2022/03/22 08:37:38;;;;;;;14.80;12.37;;;;;;;9.84;45.81;97979.03;5078828;28;20250;-52
2022/03/22 08:40:05;;;;;;;16.27;11.87;;;;;;;9.96;46.00;97964.94;5079719;28;20210;-52
2022/03/22 08:42:32;;;;;;;15.40;11.43;;;;;;;9.89;44.97;97980.38;5066183;28;20213;-51
2022/03/22 08:45:00;;;;;;;15.90;11.27;;;;;;;9.91;45.62;97975.84;5065253;28;20207;-52
2022/03/22 08:47:27;;;;;;;16.73;11.97;;;;;;;9.98;44.49;97978.91;5074893;28;20198;-51
2022/03/22 08:49:54;;;;;;;17.53;11.43;;;;;;;10.16;44.02;97964.44;5071222;28;20207;-51
2022/03/22 08:52:22;;;;;;;14.60;10.63;;;;;;;10.20;43.02;97957.97;5075507;28;20207;-52
2022/03/22 08:54:52;;;;;;;13.77;10.73;;;;;;;10.28;43.14;97960.06;5064603;28;20211;-51
2022/03/22 08:57:19;;;;;;;17.27;11.73;;;;;;;10.54;42.30;97959.06;5066369;28;20644;-52
2022/03/22 08:59:46;;;;;;;14.90;11.10;;;;;;;10.84;42.29;97954.16;5065524;28;20210;-52
2022/03/22 09:02:14;;;;;;;15.20;11.90;;;;;;;11.30;42.52;97951.59;5073572;28;20217;-53
2022/03/22 09:07:26;;;;;;;15.57;11.30;;;;;;;11.91;41.05;97950.44;5066169;28;20206;-52
2022/03/22 09:09:53;;;;;;;13.93;11.60;;;;;;;12.24;40.35;97951.41;5071706;28;20218;-51
2022/03/22 09:12:23;;;;;;;14.63;11.27;;;;;;;12.55;39.70;97937.38;5069490;28;20202;-51
2022/03/22 09:14:53;;;;;;;16.10;12.03;;;;;;;13.09;40.15;97947.09;5077291;28;20195;-52
2022/03/22 09:17:20;;;;;;;17.17;12.07;;;;;;;13.46;38.13;97941.28;5077235;28;20219;-53
2022/03/22 09:19:46;;;;;;;14.80;12.37;;;;;;;13.71;38.02;97950.66;5063493;28;20608;-51
2022/03/22 09:22:14;;;;;;;15.50;13.00;;;;;;;13.90;36.45;97944.63;5057077;28;20211;-51
2022/03/22 09:24:42;;;;;;;16.63;11.83;;;;;;;14.19;36.77;97944.78;5063392;28;20237;-51
2022/03/22 09:27:10;;;;;;;17.07;12.57;;;;;;;14.59;37.36;97943.00;5060967;28;20203;-52
2022/03/22 09:29:37;;;;;;;18.53;12.90;;;;;;;14.85;35.35;97949.47;5067419;28;20286;-50
2022/03/22 09:32:05;;;;;;;13.97;12.47;;;;;;;14.99;35.24;97945.56;5059709;28;20203;-51
2022/03/22 09:34:32;;;;;;;15.30;11.53;;;;;;;15.74;34.23;97948.38;5049028;28;20214;-51
2022/03/22 09:36:59;;;;;;;23.27;13.10;;;;;;;15.83;34.33;97944.88;5060733;28;20234;-50
2022/03/22 09:39:26;;;;;;;17.00;12.67;;;;;;;16.28;33.86;97941.47;5058800;28;20207;-52
2022/03/22 09:41:56;;;;;;;15.20;11.73;;;;;;;16.81;33.04;97937.16;5055314;28;20207;-51
2022/03/22 09:44:23;;;;;;;17.33;12.80;;;;;;;16.82;32.06;97936.16;5045633;28;20238;-50
2022/03/22 09:46:50;;;;;;;21.60;12.73;;;;;;;17.04;33.26;97937.53;5056677;28;20195;-52
2022/03/22 09:49:17;;;;;;;18.42;12.85;;;;;;;17.51;32.61;97937.31;5056371;28;20198;-52
2022/03/22 09:51:46;;;;;;;17.70;12.98;;;;;;;17.60;30.67;97926.56;5056828;28;20215;-51
2022/03/22 09:54:15;;;;;;;15.32;12.45;;;;;;;17.49;31.70;97929.44;5056535;28;20203;-52
2022/03/22 09:56:42;;;;;;;19.50;13.50;;;;;;;17.32;31.82;97927.63;5055299;28;20231;-51
2022/03/22 09:59:11;;;;;;;15.85;12.52;;;;;;;17.07;30.54;97928.41;5055601;28;20631;-52
2022/03/22 10:01:39;;;;;;;18.90;13.60;;;;;;;17.46;31.16;97929.75;5056100;28;20289;-51
2022/03/22 10:04:07;;;;;;;19.23;12.63;;;;;;;17.28;30.62;97921.75;5055794;28;20635;-52
2022/03/22 10:06:34;;;;;;;16.10;13.02;;;;;;;17.60;31.01;97915.88;5056169;28;20238;-51
2022/03/22 10:09:02;;;;;;;16.33;13.10;;;;;;;17.86;31.53;97911.34;5056503;28;20214;-52
2022/03/22 10:11:37;;;;;;;18.98;13.23;;;;;;;18.03;31.32;97906.94;5073286;28;20218;-52
2022/03/22 10:14:08;;;;;;;16.35;13.23;;;;;;;18.10;29.17;97907.16;5061556;28;20230;-53
2022/03/22 10:16:46;;;;;;;18.52;13.02;;;;;;;17.90;29.75;97901.16;5063174;28;20206;-53
2022/03/22 10:19:23;;;;;;;25.98;13.57;;;;;;;18.12;30.59;97899.78;5054635;28;20203;-52
2022/03/22 10:21:50;;;;;;;16.80;13.00;;;;;;;18.45;30.75;97896.28;5054592;28;20619;-52
2022/03/22 10:24:17;;;;;;;20.48;13.15;;;;;;;18.36;30.05;97891.88;5055616;28;20745;-51
2022/03/22 10:26:47;;;;;;;19.75;13.00;;;;;;;18.52;30.04;97897.34;5056160;28;20231;-52
2022/03/22 10:29:17;;;;;;;15.13;13.02;;;;;;;18.70;30.51;97895.38;5061341;28;20222;-51
2022/03/22 10:31:46;;;;;;;24.77;14.43;;;;;;;18.68;30.92;97886.66;5056239;28;20199;-52
2022/03/22 10:34:15;;;;;;;15.80;13.38;;;;;;;18.87;30.25;97881.00;5050638;28;20207;-51
2022/03/22 10:36:44;;;;;;;19.55;13.82;;;;;;;18.57;30.31;97878.91;5048634;28;20207;-50
2022/03/22 10:39:14;;;;;;;18.33;13.40;;;;;;;18.65;30.02;97881.63;5055637;28;20272;-52
2022/03/22 10:41:45;;;;;;;20.88;13.55;;;;;;;18.60;30.65;97878.59;5054971;28;20202;-51
2022/03/22 10:44:13;;;;;;;18.10;13.95;;;;;;;19.06;30.41;97873.69;5043069;28;20207;-51
2022/03/22 10:46:42;;;;;;;15.90;13.43;;;;;;;19.16;30.14;97874.34;5054184;28;20261;-51
2022/03/22 10:49:12;;;;;;;23.58;13.75;;;;;;;18.98;30.56;97870.97;5055072;28;20219;-51
2022/03/22 10:51:44;;;;;;;18.55;13.32;;;;;;;19.59;29.97;97871.34;5061224;28;20203;-52
2022/03/22 10:54:12;;;;;;;18.80;13.23;;;;;;;19.39;30.03;97872.66;5057213;28;20211;-51
2022/03/22 10:56:45;;;;;;;22.42;13.52;;;;;;;19.33;28.90;97876.03;5055406;28;20211;-51
2022/03/22 10:59:14;;;;;;;18.35;13.45;;;;;;;19.04;28.49;97864.94;5057505;28;20229;-51
2022/03/22 11:01:41;;;;;;;16.10;13.00;;;;;;;19.08;28.37;97872.50;5055396;28;20257;-51
2022/03/22 11:04:08;;;;;;;20.27;14.82;;;;;;;19.46;28.71;97875.53;5057597;28;20223;-53
2022/03/22 11:06:39;;;;;;;15.57;12.85;;;;;;;19.17;28.91;97870.63;5056403;28;20655;-51
2022/03/22 11:09:06;;;;;;;17.20;12.88;;;;;;;19.15;28.70;97868.16;5055666;28;20207;-51
2022/03/22 11:11:35;;;;;;;14.15;12.43;;;;;;;19.09;27.10;97865.28;5055096;28;20207;-52
2022/03/22 11:14:02;;;;;;;13.98;11.73;;;;;;;19.33;26.87;97867.97;5055149;28;20217;-51
2022/03/22 11:16:31;;;;;;;13.48;11.90;;;;;;;19.19;27.46;97868.66;5054461;28;20215;-52
2022/03/22 11:19:00;;;;;;;15.20;12.07;;;;;;;19.90;27.45;97868.78;5058269;28;20227;-52
2022/03/22 11:21:28;;;;;;;17.17;12.63;;;;;;;19.45;25.54;97857.78;5039126;28;20212;-51
2022/03/22 11:24:09;;;;;;;14.60;12.45;;;;;;;19.66;26.02;97858.91;5051596;28;20231;-51
2022/03/22 11:26:41;;;;;;;14.85;12.35;;;;;;;20.19;25.94;97862.81;5059253;28;20669;-51
2022/03/22 11:29:09;;;;;;;15.40;12.40;;;;;;;20.14;26.03;97849.91;5059263;28;20211;-51
2022/03/22 11:31:35;;;;;;;15.02;11.95;;;;;;;20.06;25.25;97859.81;5058505;28;20207;-51
2022/03/22 11:34:13;;;;;;;14.00;11.48;;;;;;;19.94;26.18;97850.47;5058232;28;20550;-51
2022/03/22 11:36:45;;;;;;;15.93;12.70;;;;;;;19.60;25.41;97856.06;5058485;28;20198;-51
2022/03/22 11:39:18;;;;;;;15.98;11.77;;;;;;;20.20;25.45;97843.84;5058268;28;20226;-51
2022/03/22 11:44:39;;;;;;;14.65;12.38;;;;;;;20.54;26.80;97840.88;5065624;28;20178;-52
2022/03/22 11:47:11;;;;;;;15.20;12.63;;;;;;;20.32;23.91;97849.69;5076018;28;20213;-52
2022/03/22 11:49:51;;;;;;;14.88;11.20;;;;;;;20.85;24.85;97833.63;5071967;28;20192;-51
2022/03/22 11:52:19;;;;;;;13.50;11.68;;;;;;;21.01;23.76;97837.22;5049965;28;20538;-51
2022/03/22 11:55:08;;;;;;;14.50;12.05;;;;;;;20.62;23.62;97832.72;5058926;28;20203;-51
2022/03/22 11:57:44;;;;;;;13.98;12.48;;;;;;;20.50;23.16;97828.78;5064714;28;20242;-51
2022/03/22 12:00:13;;;;;;;12.57;11.38;;;;;;;20.31;23.22;97827.38;5073049;28;20213;-52